Lutsen Mountain, Minnesota
Current Conditions -  °F | °C
As of 11:33 AM on Sunday 23 Nov 2014 (Local Time) from KCKC Reporting Station
Moderate Fog Moderate Fog  
Wind Chill: 37°   Ceiling: 100
Heat Index: 37°   Visibility: 0mi
Dew Point: 36°   Wind: 3mph
Humidity: 93%   Direction: 170°S
Pressure: 29.41"   Gusts: NA
Location:  47.66°N, 90.71°W
Report Text: KCKC 231733Z AUTO 17003KT M1/4SM FG OVC001 03/02 A2941 RMK AO2 P0005
Loading
Personal Weather Stations






























Interactive Weather Map New forecast layout! Learn more

10-Day Weather Forecast

Advertisements
Track Severe Weather on mobile